Springtown, Texas
Current Conditions -  °F | °C
As of 4:15 PM on Saturday 20 Dec 2014 (Local Time) from KXBP Reporting Station
Overcast Overcast  
Wind Chill: 47°   Ceiling: 2200
Heat Index: 47°   Visibility: 10mi
Dew Point: 44°   Wind: 0mph
Humidity: 87%   Direction: NA
Pressure: 30.18"   Gusts: NA
Location:  32.97°N, 97.68°W
Report Text: KXBP 202215Z AUTO 00000KT 10SM OVC022 08/06 A3018 RMK AO2 T00840064
Loading
Personal Weather Stations






























Interactive Weather Map New forecast layout! Learn more

10-Day Weather Forecast

Advertisements
Track Severe Weather on mobile